Terminal Aerodrome Forecast
Issued by NWS

Home | Current Version | Previous Version | Text Only | Print | Product List | Glossary On
Versions: 1 2 3 4 5 6 7 8 9 10 11 12 13 14
000
FTUS45 KFGZ 180727 AAA
TAFGCN
TAF AMD
KGCN 180727Z 1807/1906 VRB03KT 3SM FU SCT250
      TEMPO 1807/1811 1/2SM FU
     FM181500 24008KT P6SM SCT080 BKN110
     FM190100 VRB03KT P6SM BKN100=

USA.gov is the U.S. government's official web portal to all federal, state and local government web resources and services.